Time;durP1;ratioP1;P1;durP2;ratioP2;P2;SDS_P1;SDS_P2;PMS_P1;PMS_P2;Temp;Humidity;BMP_temperature;BMP_pressure;BME280_temperature;BME280_humidity;BME280_pressure;Samples;Min_cycle;Max_cycle;Signal;HPM_P1;HPM_P2
2021/01/17 00:00:24;;;;;;;8.83;6.70;;;0.20;92.00;;;;;;4974486;28;20681;-72
2021/01/17 00:02:53;;;;;;;4.20;2.90;;;0.20;92.10;;;;;;4974752;28;21028;-72
2021/01/17 00:05:22;;;;;;;6.55;3.30;;;0.20;92.10;;;;;;4974531;28;20457;-69
2021/01/17 00:07:48;;;;;;;3.72;3.17;;;0.20;92.20;;;;;;4973455;28;20635;-73
2021/01/17 00:10:16;;;;;;;7.43;3.72;;;0.20;92.10;;;;;;4976396;28;20544;-70
2021/01/17 00:12:42;;;;;;;3.22;2.10;;;0.20;92.00;;;;;;4977241;28;20708;-73
2021/01/17 00:15:10;;;;;;;3.23;2.37;;;0.20;91.90;;;;;;4978176;28;20216;-71
2021/01/17 00:17:37;;;;;;;3.53;3.03;;;0.10;92.10;;;;;;4978556;28;20408;-72
2021/01/17 00:20:10;;;;;;;3.45;3.25;;;0.10;92.10;;;;;;4977191;28;20181;-72
2021/01/17 00:22:36;;;;;;;2.50;2.30;;;0.00;92.20;;;;;;4978764;28;20200;-70
2021/01/17 00:25:04;;;;;;;3.72;3.47;;;0.10;92.30;;;;;;4978186;28;20522;-71
2021/01/17 00:27:29;;;;;;;4.07;3.13;;;0.10;92.30;;;;;;4978247;28;20173;-72
2021/01/17 00:29:55;;;;;;;3.80;3.27;;;0.00;92.30;;;;;;4978478;28;20240;-71
2021/01/17 00:32:21;;;;;;;4.23;2.93;;;0.10;92.40;;;;;;4978274;28;20224;-71
2021/01/17 00:34:46;;;;;;;5.13;3.17;;;0.10;92.50;;;;;;4978027;28;20256;-74
2021/01/17 00:37:16;;;;;;;3.13;2.73;;;0.20;92.40;;;;;;4978305;28;20197;-70
2021/01/17 00:39:42;;;;;;;4.65;3.90;;;0.20;92.50;;;;;;4977997;28;20471;-71
2021/01/17 00:42:13;;;;;;;7.55;5.40;;;0.20;92.60;;;;;;4977946;28;20642;-72
2021/01/17 00:44:39;;;;;;;4.38;3.45;;;0.30;92.50;;;;;;4978143;28;20256;-72
2021/01/17 00:47:05;;;;;;;4.18;3.22;;;0.30;92.40;;;;;;4977755;28;20172;-72
2021/01/17 00:49:31;;;;;;;12.67;4.57;;;0.30;92.40;;;;;;4977807;28;20239;-74
2021/01/17 00:51:57;;;;;;;7.13;5.20;;;0.30;92.50;;;;;;4977720;28;20240;-72
2021/01/17 00:54:22;;;;;;;5.50;3.53;;;0.20;92.50;;;;;;4977791;28;20177;-69
2021/01/17 00:56:48;;;;;;;7.63;3.90;;;0.20;92.70;;;;;;4976615;28;20515;-70
2021/01/17 00:59:14;;;;;;;4.37;4.07;;;0.00;92.60;;;;;;4977843;28;20209;-72
2021/01/17 01:01:47;;;;;;;6.07;3.70;;;-0.10;92.80;;;;;;4977497;28;20201;-69
2021/01/17 01:04:15;;;;;;;2.90;2.22;;;-0.10;93.10;;;;;;4977859;28;20404;-72
2021/01/17 01:06:41;;;;;;;2.20;1.70;;;-0.20;93.30;;;;;;4977416;28;20177;-74
2021/01/17 01:09:12;;;;;;;2.55;1.88;;;-0.30;94.00;;;;;;4977662;28;20169;-69
2021/01/17 01:11:38;;;;;;;3.85;2.17;;;-0.30;95.10;;;;;;4977288;28;20208;-70
2021/01/17 01:14:05;;;;;;;1.63;1.52;;;-0.30;94.90;;;;;;4976176;28;20181;-72
2021/01/17 01:16:31;;;;;;;6.43;2.80;;;-0.20;95.20;;;;;;4977119;28;20184;-73
2021/01/17 01:18:58;;;;;;;1.40;1.30;;;-0.10;95.80;;;;;;4977299;28;20169;-71
2021/01/17 01:21:27;;;;;;;1.27;1.17;;;0.10;96.20;;;;;;4976707;28;20193;-69
2021/01/17 01:23:53;;;;;;;2.47;2.28;;;0.30;96.50;;;;;;4977128;28;20192;-73
2021/01/17 01:26:21;;;;;;;0.80;0.70;;;0.40;96.20;;;;;;4977217;28;20173;-72
2021/01/17 01:28:52;;;;;;;1.42;1.30;;;0.40;96.30;;;;;;4977378;28;20172;-70
2021/01/17 01:31:25;;;;;;;2.17;1.35;;;0.50;96.20;;;;;;4977510;28;20196;-71
2021/01/17 01:33:52;;;;;;;1.85;1.60;;;0.60;96.10;;;;;;4977274;28;20176;-71
2021/01/17 01:36:22;;;;;;;4.28;1.83;;;0.70;96.10;;;;;;4977028;28;20192;-72
2021/01/17 01:38:48;;;;;;;1.35;1.25;;;0.90;95.80;;;;;;4977115;28;20181;-73
2021/01/17 01:41:17;;;;;;;1.02;1.02;;;1.00;95.80;;;;;;4976868;28;20686;-71
2021/01/17 01:43:43;;;;;;;1.60;1.50;;;1.00;95.40;;;;;;4976959;28;20259;-73
2021/01/17 01:46:16;;;;;;;1.15;1.05;;;1.10;95.50;;;;;;4975467;28;20169;-71
2021/01/17 01:48:46;;;;;;;0.80;0.80;;;1.20;95.20;;;;;;4977124;28;20170;-70
2021/01/17 01:51:14;;;;;;;1.98;1.65;;;1.30;95.60;;;;;;4976843;28;20624;-69
2021/01/17 01:53:40;;;;;;;2.22;1.52;;;1.40;95.80;;;;;;4976543;28;20181;-73
2021/01/17 01:56:07;;;;;;;0.95;0.70;;;1.40;95.60;;;;;;4976441;28;20231;-72
2021/01/17 01:58:36;;;;;;;1.30;1.02;;;1.30;95.70;;;;;;4976561;28;20185;-72
2021/01/17 02:01:06;;;;;;;1.30;1.20;;;1.20;96.10;;;;;;4975166;28;20205;-71
2021/01/17 02:03:32;;;;;;;1.00;1.00;;;1.30;96.50;;;;;;4976801;28;20288;-71
2021/01/17 02:05:58;;;;;;;1.10;1.00;;;1.40;96.50;;;;;;4976270;28;20688;-70
2021/01/17 02:08:32;;;;;;;0.90;0.90;;;1.40;96.70;;;;;;4976689;28;20903;-70
2021/01/17 02:11:09;;;;;;;0.60;0.60;;;1.50;96.70;;;;;;4976227;28;20614;-71
2021/01/17 02:13:39;;;;;;;0.93;0.82;;;1.60;96.50;;;;;;4975110;28;20647;-70
2021/01/17 02:16:07;;;;;;;0.77;0.70;;;1.70;96.30;;;;;;4976144;28;20177;-73
2021/01/17 02:18:40;;;;;;;1.15;1.05;;;1.80;96.20;;;;;;4976264;28;20260;-73
2021/01/17 02:21:08;;;;;;;1.05;0.80;;;1.80;96.50;;;;;;4976108;28;20655;-72
2021/01/17 02:23:48;;;;;;;0.70;0.70;;;1.60;96.80;;;;;;4976095;28;20343;-71
2021/01/17 02:26:14;;;;;;;0.82;0.70;;;1.60;97.30;;;;;;4976160;28;20176;-73
2021/01/17 02:28:41;;;;;;;1.60;0.63;;;1.60;97.10;;;;;;4975995;28;20169;-71
2021/01/17 02:31:09;;;;;;;0.75;0.75;;;1.60;97.40;;;;;;4975937;28;20940;-73
2021/01/17 02:33:38;;;;;;;0.68;0.68;;;1.80;97.20;;;;;;4975113;28;20236;-73
2021/01/17 02:36:06;;;;;;;0.73;0.70;;;1.70;96.90;;;;;;4975479;28;20193;-72
2021/01/17 02:38:42;;;;;;;0.85;0.85;;;1.60;97.10;;;;;;4975907;28;20516;-72
2021/01/17 02:41:25;;;;;;;0.88;0.65;;;1.70;97.50;;;;;;4974488;28;20300;-71
2021/01/17 02:43:51;;;;;;;0.70;0.70;;;1.80;97.50;;;;;;4975679;28;20190;-73
2021/01/17 02:46:16;;;;;;;1.75;0.73;;;1.80;97.30;;;;;;4975557;28;20186;-73
2021/01/17 02:48:42;;;;;;;0.67;0.60;;;1.70;97.30;;;;;;4975704;28;20161;-70
2021/01/17 02:51:08;;;;;;;0.40;0.40;;;1.70;97.40;;;;;;4975619;28;20585;-71
2021/01/17 02:53:50;;;;;;;0.50;0.50;;;1.60;97.70;;;;;;4975707;28;20256;-73
2021/01/17 02:56:17;;;;;;;0.52;0.47;;;1.50;98.10;;;;;;4974166;28;20930;-72
2021/01/17 02:58:48;;;;;;;0.60;0.50;;;1.50;98.50;;;;;;4975670;28;20209;-70
2021/01/17 03:01:21;;;;;;;0.40;0.40;;;1.60;98.50;;;;;;4975628;28;20611;-70
2021/01/17 03:03:48;;;;;;;0.50;0.50;;;1.50;98.70;;;;;;4975427;28;20206;-72
2021/01/17 03:06:14;;;;;;;0.50;0.50;;;1.70;98.80;;;;;;4975065;28;20166;-73
2021/01/17 03:08:40;;;;;;;0.50;0.50;;;1.90;98.40;;;;;;4975373;28;20261;-71
2021/01/17 03:11:06;;;;;;;1.08;0.70;;;2.10;97.90;;;;;;4975173;28;20208;-72
2021/01/17 03:13:36;;;;;;;0.73;0.57;;;2.10;97.60;;;;;;4975231;28;20225;-72
2021/01/17 03:16:06;;;;;;;0.70;0.70;;;2.10;97.20;;;;;;4974941;28;20171;-71
2021/01/17 03:18:32;;;;;;;0.85;0.85;;;1.80;97.70;;;;;;4975321;28;20527;-70
2021/01/17 03:20:58;;;;;;;0.40;0.40;;;1.70;97.90;;;;;;4975227;28;20198;-73
2021/01/17 03:23:23;;;;;;;0.60;0.60;;;1.90;98.20;;;;;;4975222;28;20523;-73
2021/01/17 03:25:49;;;;;;;0.53;0.53;;;2.00;97.90;;;;;;4974955;28;20202;-73
2021/01/17 03:28:15;;;;;;;0.50;0.50;;;2.10;97.50;;;;;;4975301;28;20553;-71
2021/01/17 03:30:40;;;;;;;0.83;0.73;;;2.00;97.60;;;;;;4974859;28;20668;-73
2021/01/17 03:33:06;;;;;;;0.60;0.60;;;1.80;97.80;;;;;;4975068;28;20687;-72
2021/01/17 03:35:32;;;;;;;0.87;0.80;;;1.70;98.00;;;;;;4974833;28;20536;-71
2021/01/17 03:37:58;;;;;;;0.70;0.53;;;1.70;97.90;;;;;;4975099;28;20333;-73
2021/01/17 03:40:25;;;;;;;0.60;0.60;;;1.80;98.00;;;;;;4974924;28;20225;-71
2021/01/17 03:42:50;;;;;;;0.73;0.70;;;1.90;97.90;;;;;;4974725;28;20205;-74
2021/01/17 03:45:16;;;;;;;0.60;0.60;;;1.90;97.50;;;;;;4974481;28;20180;-72
2021/01/17 03:47:42;;;;;;;2.70;1.27;;;1.80;97.60;;;;;;4975020;28;20174;-73
2021/01/17 03:50:08;;;;;;;0.60;0.60;;;1.80;97.90;;;;;;4974817;28;20333;-70
2021/01/17 03:52:33;;;;;;;1.67;1.08;;;1.90;98.00;;;;;;4974814;28;20528;-74
2021/01/17 03:54:59;;;;;;;0.90;0.40;;;1.90;97.70;;;;;;4974493;28;20192;-71
2021/01/17 03:57:25;;;;;;;0.80;0.80;;;1.80;97.90;;;;;;4974689;28;20177;-70
2021/01/17 03:59:50;;;;;;;0.87;0.87;;;1.70;97.70;;;;;;4974758;28;20763;-72
2021/01/17 04:02:16;;;;;;;0.97;0.77;;;1.60;98.10;;;;;;4974510;28;20205;-70
2021/01/17 04:04:41;;;;;;;0.80;0.80;;;1.80;98.20;;;;;;4974644;28;20173;-72
2021/01/17 04:07:07;;;;;;;1.10;1.10;;;1.70;98.30;;;;;;4974628;28;20177;-69
2021/01/17 04:09:33;;;;;;;1.20;1.10;;;1.70;98.40;;;;;;4974496;28;20582;-71
2021/01/17 04:11:58;;;;;;;2.27;1.90;;;1.70;98.40;;;;;;4974563;28;20625;-70
2021/01/17 04:14:24;;;;;;;0.77;0.77;;;1.60;98.70;;;;;;4974538;28;20182;-72
2021/01/17 04:16:51;;;;;;;1.70;1.60;;;1.60;98.80;;;;;;4974492;28;20188;-72
2021/01/17 04:19:17;;;;;;;2.38;1.33;;;1.60;99.00;;;;;;4974556;28;20539;-71
2021/01/17 04:21:43;;;;;;;1.20;1.10;;;1.60;98.90;;;;;;4974346;28;20205;-74
2021/01/17 04:24:09;;;;;;;1.97;1.77;;;1.50;99.00;;;;;;4974419;28;20174;-73
2021/01/17 04:26:34;;;;;;;3.10;2.73;;;1.70;99.00;;;;;;4974269;28;20400;-72
2021/01/17 04:29:00;;;;;;;2.00;1.90;;;1.60;98.80;;;;;;4973232;28;20413;-73
2021/01/17 04:31:26;;;;;;;1.37;1.27;;;1.30;99.00;;;;;;4974228;28;20193;-72
2021/01/17 04:33:51;;;;;;;1.83;1.70;;;1.20;99.80;;;;;;4974236;28;20173;-71
2021/01/17 04:36:17;;;;;;;1.63;1.27;;;1.20;99.90;;;;;;4974182;28;20302;-70
2021/01/17 04:38:42;;;;;;;1.67;1.43;;;1.10;99.90;;;;;;4974480;28;20521;-70
2021/01/17 04:41:13;;;;;;;1.50;1.40;;;1.20;99.90;;;;;;4974300;28;20198;-69
2021/01/17 04:43:44;;;;;;;3.30;2.28;;;1.20;99.90;;;;;;4972988;28;20225;-72
2021/01/17 04:46:14;;;;;;;1.30;1.20;;;1.10;99.90;;;;;;4974289;28;20170;-70
2021/01/17 04:48:42;;;;;;;1.55;1.45;;;1.20;99.90;;;;;;4973029;28;20264;-73
2021/01/17 04:51:10;;;;;;;4.93;1.67;;;1.10;99.90;;;;;;4974074;28;20203;-74
2021/01/17 04:53:37;;;;;;;1.30;1.20;;;1.30;99.90;;;;;;4974115;28;20178;-73
2021/01/17 04:56:24;;;;;;;1.73;0.82;;;1.40;99.90;;;;;;4975714;28;20174;-74
2021/01/17 04:59:10;;;;;;;1.10;1.00;;;1.50;99.90;;;;;;4977821;28;20631;-72
2021/01/17 05:01:48;;;;;;;1.65;1.55;;;1.40;99.90;;;;;;4977511;28;20567;-73
2021/01/17 05:04:36;;;;;;;2.13;1.17;;;1.20;99.90;;;;;;4977602;28;20167;-69
2021/01/17 05:07:15;;;;;;;1.50;1.40;;;1.20;99.90;;;;;;4977514;28;20167;-70
2021/01/17 05:09:45;;;;;;;2.75;1.85;;;1.30;99.90;;;;;;4977597;28;20169;-69
2021/01/17 05:12:13;;;;;;;1.10;1.00;;;1.50;99.90;;;;;;4977349;28;20198;-74
2021/01/17 05:14:48;;;;;;;1.98;1.48;;;1.50;99.90;;;;;;4977359;28;20260;-74
2021/01/17 05:17:23;;;;;;;0.90;0.90;;;1.50;99.90;;;;;;4977558;28;20180;-72
2021/01/17 05:19:50;;;;;;;2.40;1.23;;;1.50;99.90;;;;;;4977390;28;20182;-72
2021/01/17 05:22:19;;;;;;;1.77;1.55;;;1.50;99.90;;;;;;4977069;28;20228;-72
2021/01/17 05:24:50;;;;;;;1.58;0.90;;;1.60;99.90;;;;;;4977079;28;20170;-72
2021/01/17 05:27:16;;;;;;;0.70;0.70;;;1.60;99.90;;;;;;4977392;28;20636;-71
2021/01/17 05:29:42;;;;;;;0.77;0.67;;;1.60;99.70;;;;;;4977352;28;20228;-71
2021/01/17 05:32:08;;;;;;;1.43;0.87;;;1.60;99.70;;;;;;4977239;28;20442;-73
2021/01/17 05:34:34;;;;;;;1.10;1.00;;;1.80;99.50;;;;;;4977160;28;20187;-72
2021/01/17 05:37:01;;;;;;;1.20;1.00;;;1.70;99.10;;;;;;4976835;28;20266;-72
2021/01/17 05:39:26;;;;;;;1.30;0.60;;;1.30;99.50;;;;;;4977021;28;20409;-69
2021/01/17 05:41:52;;;;;;;0.63;0.57;;;1.30;99.60;;;;;;4976749;28;20276;-73
2021/01/17 05:44:39;;;;;;;0.50;0.50;;;1.20;99.90;;;;;;4976984;28;20254;-74
2021/01/17 05:47:06;;;;;;;0.93;0.70;;;1.50;99.90;;;;;;4976347;28;20182;-72
2021/01/17 05:49:32;;;;;;;0.70;0.70;;;1.70;99.40;;;;;;4977046;28;20175;-70
2021/01/17 05:52:18;;;;;;;0.70;0.70;;;1.80;99.20;;;;;;4976729;28;20727;-69
2021/01/17 05:54:49;;;;;;;0.93;0.63;;;1.90;98.40;;;;;;4976971;28;20409;-72
2021/01/17 05:57:23;;;;;;;0.80;0.80;;;2.00;98.50;;;;;;4976895;28;20552;-73
2021/01/17 05:59:50;;;;;;;1.08;0.70;;;2.00;98.50;;;;;;4975213;28;20182;-71
2021/01/17 06:02:17;;;;;;;0.60;0.60;;;1.80;98.40;;;;;;4976442;28;20216;-71
2021/01/17 06:04:48;;;;;;;0.40;0.40;;;1.70;98.50;;;;;;4976473;28;20258;-72
2021/01/17 06:07:16;;;;;;;0.73;0.73;;;1.70;98.70;;;;;;4976804;28;20215;-71
2021/01/17 06:09:43;;;;;;;0.77;0.60;;;1.80;98.60;;;;;;4976526;28;20170;-72
2021/01/17 06:12:10;;;;;;;0.50;0.50;;;1.90;98.40;;;;;;4977067;28;20587;-71
2021/01/17 06:14:36;;;;;;;0.50;0.50;;;1.90;98.60;;;;;;4975331;28;20687;-73
2021/01/17 06:17:04;;;;;;;0.83;0.83;;;2.00;98.40;;;;;;4974941;28;20387;-69
2021/01/17 06:19:32;;;;;;;0.60;0.60;;;2.00;98.20;;;;;;4976335;28;20418;-72
2021/01/17 06:22:04;;;;;;;0.68;0.50;;;2.10;98.10;;;;;;4976047;28;20647;-73
2021/01/17 06:24:41;;;;;;;0.65;0.63;;;2.20;97.90;;;;;;4976203;28;20175;-72
2021/01/17 06:27:08;;;;;;;1.05;1.05;;;2.20;97.60;;;;;;4976093;28;20175;-70
2021/01/17 06:29:40;;;;;;;0.50;0.50;;;1.90;98.10;;;;;;4975958;28;20182;-72
2021/01/17 06:32:17;;;;;;;0.60;0.60;;;2.00;98.30;;;;;;4976193;28;20194;-69
2021/01/17 06:34:48;;;;;;;1.10;0.95;;;2.00;98.00;;;;;;4974579;28;20179;-73
2021/01/17 06:37:15;;;;;;;0.85;0.85;;;2.00;98.10;;;;;;4976097;28;20178;-74
2021/01/17 06:39:47;;;;;;;0.68;0.68;;;2.00;97.90;;;;;;4975893;28;20277;-74
2021/01/17 06:42:14;;;;;;;5.32;2.13;;;1.90;97.90;;;;;;4975455;28;20233;-72
2021/01/17 06:44:41;;;;;;;1.50;0.80;;;1.90;98.00;;;;;;4975960;28;20175;-71
2021/01/17 06:47:15;;;;;;;1.05;0.95;;;2.00;98.00;;;;;;4975059;28;20225;-71
2021/01/17 06:49:41;;;;;;;0.70;0.50;;;2.00;98.10;;;;;;4974607;28;20175;-72
2021/01/17 06:52:08;;;;;;;0.73;0.73;;;2.00;97.90;;;;;;4975126;28;20293;-74
2021/01/17 06:54:42;;;;;;;0.70;0.70;;;1.80;98.10;;;;;;4975620;28;20166;-70
2021/01/17 06:57:08;;;;;;;0.88;0.88;;;1.80;98.40;;;;;;4975817;28;20210;-72
2021/01/17 06:59:42;;;;;;;1.05;1.05;;;1.80;98.60;;;;;;4975520;28;20181;-72
2021/01/17 07:02:25;;;;;;;1.90;1.10;;;1.50;98.90;;;;;;4975321;28;20284;-68
2021/01/17 07:05:12;;;;;;;1.00;0.80;;;1.80;99.00;;;;;;4975066;28;20586;-70
2021/01/17 07:07:47;;;;;;;1.30;1.23;;;1.90;98.70;;;;;;4975567;28;20202;-71
2021/01/17 07:10:13;;;;;;;0.68;0.68;;;1.80;98.80;;;;;;4975074;28;20189;-72
2021/01/17 07:12:44;;;;;;;1.00;0.90;;;1.90;98.60;;;;;;4975679;28;20515;-71
2021/01/17 07:15:13;;;;;;;0.70;0.70;;;1.80;98.80;;;;;;4975105;28;20413;-68
2021/01/17 07:17:41;;;;;;;0.68;0.60;;;2.00;98.60;;;;;;4975103;28;20181;-71
2021/01/17 07:20:14;;;;;;;1.52;1.05;;;2.20;98.10;;;;;;4975030;28;20195;-70
2021/01/17 07:22:44;;;;;;;0.88;0.80;;;2.30;98.00;;;;;;4975429;28;20202;-71
2021/01/17 07:25:11;;;;;;;0.57;0.57;;;2.20;98.10;;;;;;4974935;28;20174;-68
2021/01/17 07:27:52;;;;;;;0.60;0.60;;;2.30;98.00;;;;;;4975035;28;20182;-69
2021/01/17 07:30:32;;;;;;;1.15;0.75;;;2.40;97.90;;;;;;4975191;28;20174;-71
2021/01/17 07:33:03;;;;;;;0.65;0.65;;;2.30;97.70;;;;;;4973903;28;20188;-68
2021/01/17 07:35:42;;;;;;;0.88;0.60;;;2.30;97.50;;;;;;4974817;28;20208;-70
2021/01/17 07:38:19;;;;;;;0.80;0.80;;;2.30;97.00;;;;;;4973803;28;20178;-72
2021/01/17 07:40:56;;;;;;;0.80;0.80;;;2.30;97.10;;;;;;4975000;28;20197;-70
2021/01/17 07:43:26;;;;;;;3.42;1.20;;;2.30;97.40;;;;;;4974958;28;20667;-72
2021/01/17 07:45:53;;;;;;;0.60;0.60;;;2.30;97.40;;;;;;4974892;28;20546;-70
2021/01/17 07:48:20;;;;;;;0.73;0.73;;;2.40;97.10;;;;;;4974859;28;20171;-71
2021/01/17 07:50:52;;;;;;;1.17;0.98;;;2.40;97.00;;;;;;4974982;28;20284;-72
2021/01/17 07:53:30;;;;;;;0.70;0.50;;;2.20;97.40;;;;;;4973661;28;20223;-69
2021/01/17 07:56:07;;;;;;;0.98;0.77;;;2.20;97.40;;;;;;4974711;28;20179;-71
2021/01/17 07:58:36;;;;;;;0.80;0.80;;;2.40;97.20;;;;;;4974601;28;20174;-70
2021/01/17 08:01:02;;;;;;;3.50;0.90;;;2.40;97.00;;;;;;4973478;28;20204;-72
2021/01/17 08:03:27;;;;;;;1.43;0.60;;;2.40;97.10;;;;;;4973348;28;20217;-69
2021/01/17 08:05:56;;;;;;;0.63;0.63;;;2.30;97.20;;;;;;4974692;28;20397;-71
2021/01/17 08:08:34;;;;;;;0.80;0.80;;;2.40;97.50;;;;;;4974446;28;20193;-69
2021/01/17 08:11:00;;;;;;;0.80;0.80;;;2.40;97.50;;;;;;4974554;28;20576;-71
2021/01/17 08:13:33;;;;;;;1.48;1.10;;;2.60;97.40;;;;;;4974673;28;20272;-70
2021/01/17 08:16:12;;;;;;;0.90;0.90;;;2.60;97.20;;;;;;4974577;28;20174;-69
2021/01/17 08:18:39;;;;;;;1.00;1.00;;;2.40;97.10;;;;;;4974943;28;20183;-69
2021/01/17 08:21:20;;;;;;;2.35;2.25;;;2.50;97.50;;;;;;4974598;28;20238;-71
2021/01/17 08:24:13;;;;;;;0.70;0.70;;;2.50;97.30;;;;;;4974441;28;20210;-70
2021/01/17 08:27:01;;;;;;;1.10;1.00;;;2.20;97.60;;;;;;4974588;28;20498;-69
2021/01/17 08:29:28;;;;;;;0.98;0.98;;;2.20;97.90;;;;;;4975018;28;20602;-68
2021/01/17 08:31:54;;;;;;;1.05;1.05;;;2.10;98.10;;;;;;4977301;28;20248;-69
2021/01/17 08:34:27;;;;;;;0.83;0.83;;;2.20;98.20;;;;;;4978328;28;20185;-72
2021/01/17 08:36:54;;;;;;;1.60;1.50;;;2.10;98.20;;;;;;4978229;28;20402;-70
2021/01/17 08:39:44;;;;;;;0.98;0.98;;;2.20;98.20;;;;;;4978151;28;20173;-67
2021/01/17 08:42:33;;;;;;;0.90;0.82;;;2.20;99.90;;;;;;4973486;28;20551;-70
2021/01/17 08:45:01;;;;;;;0.93;0.93;;;2.20;99.90;;;;;;4977971;28;20174;-67
2021/01/17 08:47:27;;;;;;;0.95;0.75;;;2.10;98.20;;;;;;4978530;28;20221;-71
2021/01/17 08:49:53;;;;;;;0.97;0.97;;;2.10;98.30;;;;;;4977869;28;20186;-73
2021/01/17 08:52:26;;;;;;;0.80;0.80;;;2.30;98.50;;;;;;4978393;28;20444;-71
2021/01/17 08:54:53;;;;;;;1.85;1.75;;;2.50;98.00;;;;;;4978111;28;20188;-69
2021/01/17 08:57:41;;;;;;;1.48;1.38;;;2.60;97.70;;;;;;4977764;28;20531;-69
2021/01/17 09:00:16;;;;;;;1.17;1.08;;;2.70;97.30;;;;;;4977569;28;20526;-69
2021/01/17 09:02:42;;;;;;;1.95;1.85;;;2.70;97.20;;;;;;4977582;28;20220;-70
2021/01/17 09:05:18;;;;;;;1.00;1.00;;;2.80;97.10;;;;;;4976717;28;20665;-69
2021/01/17 09:07:46;;;;;;;0.90;0.90;;;2.70;97.10;;;;;;4977573;28;20167;-69
2021/01/17 09:10:17;;;;;;;1.80;0.80;;;2.70;97.20;;;;;;4977297;28;20562;-69
2021/01/17 09:12:43;;;;;;;0.82;0.82;;;2.60;97.30;;;;;;4977722;28;20168;-70
2021/01/17 09:15:19;;;;;;;0.90;0.90;;;2.40;97.50;;;;;;4977269;28;20188;-69
2021/01/17 09:17:59;;;;;;;0.90;0.90;;;2.30;98.00;;;;;;4977340;28;20203;-68
2021/01/17 09:20:26;;;;;;;18.95;11.10;;;2.30;98.10;;;;;;4975983;28;20221;-69
2021/01/17 09:22:54;;;;;;;2.15;1.58;;;2.40;98.00;;;;;;4977231;28;20215;-68
2021/01/17 09:25:21;;;;;;;1.58;1.50;;;2.50;97.80;;;;;;4976751;28;20207;-69
2021/01/17 09:27:50;;;;;;;1.95;0.82;;;2.60;97.70;;;;;;4977052;28;20249;-69
2021/01/17 09:30:16;;;;;;;0.85;0.85;;;2.80;97.50;;;;;;4976302;28;20171;-69
2021/01/17 09:32:43;;;;;;;1.52;1.35;;;2.70;97.30;;;;;;4976492;28;20176;-70
2021/01/17 09:35:09;;;;;;;2.28;2.08;;;2.90;97.40;;;;;;4976974;28;20277;-70
2021/01/17 09:37:35;;;;;;;2.37;2.20;;;3.20;96.90;;;;;;4975749;28;20211;-70
2021/01/17 09:40:03;;;;;;;2.83;2.30;;;3.30;96.50;;;;;;4976940;28;20412;-70
2021/01/17 09:42:30;;;;;;;2.58;2.38;;;3.40;96.20;;;;;;4976432;28;20203;-69
2021/01/17 09:45:00;;;;;;;5.60;4.28;;;3.50;95.80;;;;;;4976742;28;20226;-69
2021/01/17 09:47:27;;;;;;;4.80;3.50;;;3.50;95.80;;;;;;4976924;28;20306;-69
2021/01/17 09:49:53;;;;;;;2.58;1.80;;;3.60;95.80;;;;;;4976980;28;20701;-69
2021/01/17 09:52:21;;;;;;;3.17;2.85;;;3.50;95.60;;;;;;4976763;28;20547;-70
2021/01/17 09:54:48;;;;;;;2.38;2.20;;;3.50;95.50;;;;;;4976645;28;20183;-69
2021/01/17 09:57:15;;;;;;;6.35;3.53;;;3.50;95.50;;;;;;4976902;28;20323;-69
2021/01/17 09:59:41;;;;;;;7.95;4.90;;;3.40;95.60;;;;;;4976645;28;20218;-70
2021/01/17 10:02:09;;;;;;;16.00;8.95;;;3.50;95.70;;;;;;4975207;28;20706;-69
2021/01/17 10:04:35;;;;;;;6.15;4.65;;;3.50;95.60;;;;;;4976650;28;20253;-70
2021/01/17 10:07:01;;;;;;;2.08;1.85;;;3.50;95.60;;;;;;4975172;28;20230;-68
2021/01/17 10:09:27;;;;;;;4.00;2.50;;;3.60;95.80;;;;;;4976649;28;20181;-67
2021/01/17 10:12:01;;;;;;;6.78;3.33;;;3.70;95.60;;;;;;4976398;28;20300;-70
2021/01/17 10:14:32;;;;;;;11.85;7.57;;;3.70;95.30;;;;;;4976644;28;20250;-68
2021/01/17 10:16:59;;;;;;;5.22;4.43;;;3.80;95.20;;;;;;4976256;28;20169;-68
2021/01/17 10:19:27;;;;;;;26.08;13.38;;;3.90;95.30;;;;;;4976431;28;20176;-70
2021/01/17 10:21:53;;;;;;;21.20;11.38;;;3.90;95.30;;;;;;4976133;28;20275;-68
2021/01/17 10:24:21;;;;;;;3.07;2.30;;;3.90;95.30;;;;;;4976445;28;20252;-70
2021/01/17 10:26:50;;;;;;;2.88;2.47;;;3.90;95.20;;;;;;4975972;28;20195;-69
2021/01/17 10:29:20;;;;;;;7.07;6.30;;;3.80;95.10;;;;;;4976107;28;20665;-70
2021/01/17 10:31:51;;;;;;;1.80;1.10;;;3.80;95.10;;;;;;4976067;28;20224;-70
2021/01/17 10:34:24;;;;;;;1.60;1.50;;;4.00;95.10;;;;;;4976156;28;20173;-70
2021/01/17 10:36:55;;;;;;;3.33;2.75;;;4.20;95.20;;;;;;4976022;28;20645;-70
2021/01/17 10:39:21;;;;;;;3.10;2.75;;;4.20;94.70;;;;;;4975962;28;20647;-69
2021/01/17 10:41:48;;;;;;;1.10;1.08;;;4.20;94.70;;;;;;4974489;28;20204;-69
2021/01/17 10:44:24;;;;;;;3.20;2.90;;;4.30;94.50;;;;;;4975998;28;20205;-69
2021/01/17 10:47:05;;;;;;;1.10;1.10;;;5.40;94.90;;;;;;4975640;28;20172;-68
2021/01/17 10:49:36;;;;;;;1.35;0.70;;;4.50;94.40;;;;;;4975939;28;20228;-70
2021/01/17 10:52:10;;;;;;;0.90;0.65;;;4.60;94.10;;;;;;4975838;28;20184;-69
2021/01/17 10:54:40;;;;;;;0.90;0.90;;;4.80;93.90;;;;;;4975092;28;20280;-70
2021/01/17 10:57:07;;;;;;;1.65;1.55;;;5.30;93.80;;;;;;4975511;28;20165;-70
2021/01/17 10:59:34;;;;;;;0.93;0.90;;;5.30;93.60;;;;;;4975684;28;20693;-70
2021/01/17 11:02:00;;;;;;;1.05;1.00;;;4.80;93.60;;;;;;4975270;28;20205;-68
2021/01/17 11:04:36;;;;;;;0.93;0.83;;;4.80;93.50;;;;;;4975524;28;20180;-70
2021/01/17 11:07:03;;;;;;;0.50;0.50;;;5.10;93.80;;;;;;4975268;28;20251;-70
2021/01/17 11:09:29;;;;;;;1.05;0.80;;;4.90;93.70;;;;;;4975352;28;20651;-68
2021/01/17 11:11:55;;;;;;;0.70;0.70;;;4.70;94.00;;;;;;4974071;28;20561;-68
2021/01/17 11:14:31;;;;;;;0.87;0.87;;;5.30;94.30;;;;;;4975759;28;20169;-70
2021/01/17 11:16:59;;;;;;;1.02;1.02;;;4.90;93.80;;;;;;4975029;28;20177;-70
2021/01/17 11:19:38;;;;;;;0.50;0.50;;;5.20;93.60;;;;;;4975292;28;20629;-69
2021/01/17 11:22:07;;;;;;;0.85;0.85;;;5.40;93.00;;;;;;4975337;28;20194;-70
2021/01/17 11:24:40;;;;;;;2.35;2.17;;;5.60;92.80;;;;;;4975136;28;20252;-69
2021/01/17 11:27:07;;;;;;;0.40;0.40;;;5.40;92.80;;;;;;4974954;28;20165;-70
2021/01/17 11:29:32;;;;;;;1.27;1.00;;;5.40;92.50;;;;;;4974978;28;20181;-69
2021/01/17 11:31:58;;;;;;;0.73;0.73;;;5.50;92.40;;;;;;4974966;28;20259;-70
2021/01/17 11:34:24;;;;;;;0.60;0.60;;;5.70;92.30;;;;;;4975157;28;20650;-69
2021/01/17 11:36:56;;;;;;;0.40;0.40;;;5.90;92.50;;;;;;4974818;28;20517;-70
2021/01/17 11:39:22;;;;;;;0.70;0.70;;;6.00;91.90;;;;;;4974867;28;20172;-70
2021/01/17 11:41:48;;;;;;;1.25;1.08;;;5.90;91.30;;;;;;4974826;28;20197;-70
2021/01/17 11:44:19;;;;;;;1.10;0.90;;;5.90;91.40;;;;;;4974844;28;20263;-70
2021/01/17 11:46:46;;;;;;;2.53;2.33;;;6.00;91.40;;;;;;4973698;28;20969;-69
2021/01/17 11:49:13;;;;;;;1.25;1.15;;;6.10;91.80;;;;;;4974901;28;20544;-69
2021/01/17 11:51:39;;;;;;;1.05;0.93;;;6.10;91.30;;;;;;4974849;28;20185;-68
2021/01/17 11:54:12;;;;;;;0.75;0.60;;;6.00;91.30;;;;;;4974842;28;20240;-70
2021/01/17 11:56:37;;;;;;;0.77;0.60;;;6.00;91.30;;;;;;4974626;28;20561;-67
2021/01/17 11:59:03;;;;;;;0.50;0.50;;;6.00;91.10;;;;;;4974761;28;20184;-70
2021/01/17 12:01:29;;;;;;;0.80;0.80;;;6.00;91.10;;;;;;4974538;28;20428;-69
2021/01/17 12:04:08;;;;;;;2.40;2.17;;;5.90;91.40;;;;;;4974692;28;20464;-69
2021/01/17 12:06:34;;;;;;;4.15;2.45;;;5.90;91.40;;;;;;4979590;28;20173;-70
2021/01/17 12:09:02;;;;;;;0.90;0.90;;;5.70;91.80;;;;;;4981047;28;20319;-68
2021/01/17 12:11:29;;;;;;;1.40;1.30;;;5.50;91.70;;;;;;4980895;28;20580;-69
2021/01/17 12:13:55;;;;;;;1.60;0.95;;;5.70;91.90;;;;;;4981150;28;20624;-69
2021/01/17 12:16:44;;;;;;;1.20;1.20;;;5.60;91.80;;;;;;4980928;28;20180;-69
2021/01/17 12:19:14;;;;;;;0.95;0.95;;;5.70;91.80;;;;;;4981073;28;20187;-69
2021/01/17 12:21:41;;;;;;;1.88;1.77;;;5.80;91.60;;;;;;4980918;28;20224;-70
2021/01/17 12:24:10;;;;;;;1.35;0.88;;;5.70;91.90;;;;;;4980916;28;20561;-70
2021/01/17 12:26:36;;;;;;;1.85;1.70;;;5.60;92.30;;;;;;4980746;28;20212;-68
2021/01/17 12:29:02;;;;;;;0.73;0.73;;;5.60;92.30;;;;;;4980957;28;20172;-70
2021/01/17 12:31:28;;;;;;;2.60;2.35;;;5.50;92.10;;;;;;4980839;28;20463;-70
2021/01/17 12:33:55;;;;;;;0.80;0.80;;;5.50;92.50;;;;;;4980806;28;20176;-69
2021/01/17 12:36:23;;;;;;;0.60;0.60;;;5.60;92.40;;;;;;4980641;28;20580;-70
2021/01/17 12:38:50;;;;;;;1.40;0.70;;;5.40;92.20;;;;;;4980830;28;20534;-70
2021/01/17 12:41:21;;;;;;;0.65;0.65;;;5.40;92.50;;;;;;4980657;28;20613;-70
2021/01/17 12:43:47;;;;;;;0.40;0.40;;;5.30;92.30;;;;;;4980763;28;20252;-70
2021/01/17 12:46:14;;;;;;;3.15;2.95;;;5.20;92.50;;;;;;4980522;28;20168;-69
2021/01/17 12:48:40;;;;;;;0.98;0.82;;;5.20;92.90;;;;;;4980603;28;20207;-69
2021/01/17 12:51:07;;;;;;;1.17;1.00;;;5.30;92.70;;;;;;4980805;28;20275;-70
2021/01/17 12:53:33;;;;;;;0.68;0.68;;;5.30;92.70;;;;;;4980695;28;20400;-69
2021/01/17 12:55:59;;;;;;;2.17;0.82;;;5.60;92.50;;;;;;4980560;28;20177;-69
2021/01/17 12:58:25;;;;;;;0.50;0.50;;;5.70;92.10;;;;;;4980786;28;20181;-68
2021/01/17 13:00:50;;;;;;;1.13;0.60;;;5.80;92.20;;;;;;4980715;28;20200;-69
2021/01/17 13:03:16;;;;;;;0.63;0.63;;;5.80;92.00;;;;;;4980479;28;20298;-68
2021/01/17 13:05:41;;;;;;;0.60;0.60;;;5.80;92.00;;;;;;4980383;28;20199;-69